Time;durP1;ratioP1;P1;durP2;ratioP2;P2;SDS_P1;SDS_P2;PMS_P1;PMS_P2;Temp;Humidity;BMP_temperature;BMP_pressure;BME280_temperature;BME280_humidity;BME280_pressure;Samples;Min_cycle;Max_cycle;Signal;HPM_P1;HPM_P2
2022/11/25 00:00:44;;;;;;;18.90;15.10;;;;;20.90;100028.00;;;;2088224;28;20227;-51
2022/11/25 00:01:44;;;;;;;19.50;14.53;;;;;21.00;100030.00;;;;2087785;28;20239;-50
2022/11/25 00:02:45;;;;;;;18.80;14.30;;;;;21.00;100020.00;;;;2087360;28;20262;-49
2022/11/25 00:03:45;;;;;;;18.97;14.20;;;;;21.00;100014.00;;;;2087888;28;20258;-51
2022/11/25 00:04:45;;;;;;;18.90;13.33;;;;;21.00;100008.00;;;;2088126;28;20696;-49
2022/11/25 00:05:46;;;;;;;16.77;12.77;;;;;20.90;100012.00;;;;2088076;28;20650;-50
2022/11/25 00:06:46;;;;;;;18.87;13.40;;;;;21.00;100003.00;;;;2088142;28;20782;-50
2022/11/25 00:07:46;;;;;;;17.17;13.27;;;;;20.90;100009.00;;;;2087713;28;20585;-50
2022/11/25 00:08:48;;;;;;;16.00;12.73;;;;;20.90;100010.00;;;;2087715;28;20637;-50
2022/11/25 00:09:49;;;;;;;17.85;13.25;;;;;20.90;100006.00;;;;2088009;28;20670;-50
2022/11/25 00:10:49;;;;;;;17.20;13.00;;;;;20.80;100006.00;;;;2087961;28;20208;-50
2022/11/25 00:11:49;;;;;;;16.10;12.10;;;;;21.00;100004.00;;;;2087195;28;20259;-50
2022/11/25 00:12:50;;;;;;;16.13;12.00;;;;;21.00;100003.00;;;;2087963;28;20208;-50
2022/11/25 00:13:50;;;;;;;15.23;11.80;;;;;21.00;100002.00;;;;2087814;28;20235;-50
2022/11/25 00:14:50;;;;;;;15.37;11.73;;;;;20.90;99996.00;;;;2088068;28;20200;-49
2022/11/25 00:15:50;;;;;;;17.07;12.13;;;;;20.90;99999.00;;;;2087957;28;20267;-50
2022/11/25 00:16:51;;;;;;;15.90;12.67;;;;;20.90;99998.00;;;;2088180;28;20248;-48
2022/11/25 00:17:51;;;;;;;14.60;9.87;;;;;20.90;99999.00;;;;2087949;28;20223;-50
2022/11/25 00:18:52;;;;;;;15.37;11.10;;;;;20.90;99995.00;;;;2087572;28;20205;-48
2022/11/25 00:19:53;;;;;;;14.45;10.75;;;;;20.90;99988.00;;;;2088026;28;20304;-50
2022/11/25 00:20:53;;;;;;;12.50;10.03;;;;;20.90;99986.00;;;;2087912;28;20906;-50
2022/11/25 00:21:53;;;;;;;15.10;11.03;;;;;20.90;99991.00;;;;2087123;28;20215;-50
2022/11/25 00:22:54;;;;;;;14.40;10.97;;;;;20.90;99986.00;;;;2087806;28;20205;-51
2022/11/25 00:23:55;;;;;;;12.47;9.47;;;;;20.90;99985.00;;;;2087704;28;20251;-51
2022/11/25 00:24:56;;;;;;;13.85;10.35;;;;;20.90;99989.00;;;;2087969;28;20209;-51
2022/11/25 00:25:56;;;;;;;12.83;9.80;;;;;20.90;99984.00;;;;2087923;28;20656;-52
2022/11/25 00:26:56;;;;;;;13.97;10.60;;;;;20.90;99989.00;;;;2087966;28;20574;-51
2022/11/25 00:27:57;;;;;;;12.90;10.53;;;;;20.90;99978.00;;;;2087130;28;20681;-52
2022/11/25 00:28:58;;;;;;;12.27;9.77;;;;;20.90;99988.00;;;;2087848;28;20225;-52
2022/11/25 00:29:58;;;;;;;14.45;10.00;;;;;20.90;99989.00;;;;2087857;28;20244;-52
2022/11/25 00:31:09;;;;;;;12.33;9.93;;;;;20.90;99986.00;;;;2087808;28;20220;-50
2022/11/25 00:32:09;;;;;;;14.60;9.93;;;;;20.90;99985.00;;;;2086381;28;20220;-52
2022/11/25 00:33:10;;;;;;;13.87;9.77;;;;;20.90;99983.00;;;;2087793;28;20228;-51
2022/11/25 00:34:12;;;;;;;17.47;10.47;;;;;20.80;99983.00;;;;2087274;28;20219;-51
2022/11/25 00:35:12;;;;;;;11.25;8.80;;;;;20.80;99977.00;;;;2080990;28;20271;-51
2022/11/25 00:36:20;;;;;;;12.00;9.00;;;;;20.80;99984.00;;;;2087969;28;20216;-51
2022/11/25 00:37:21;;;;;;;11.35;8.48;;;;;20.80;99982.00;;;;2084181;28;20213;-50
2022/11/25 00:38:21;;;;;;;12.33;8.97;;;;;20.80;99980.00;;;;2086779;28;20290;-50
2022/11/25 00:39:23;;;;;;;11.27;8.57;;;;;20.90;99985.00;;;;2084236;28;20227;-50
2022/11/25 00:40:23;;;;;;;10.65;7.68;;;;;20.80;99974.00;;;;2087752;28;20209;-51
2022/11/25 00:45:20;;;;;;;10.75;7.70;;;;;20.80;99985.00;;;;2087278;28;20295;-50
2022/11/25 00:46:21;;;;;;;12.00;8.47;;;;;20.80;99979.00;;;;2087784;28;20678;-51
2022/11/25 00:47:21;;;;;;;9.63;7.50;;;;;20.80;99987.00;;;;2087588;28;20586;-51
2022/11/25 00:48:21;;;;;;;10.20;7.53;;;;;20.80;99978.00;;;;2087823;28;20217;-50
2022/11/25 00:49:22;;;;;;;12.10;7.93;;;;;20.80;99982.00;;;;2087111;28;20255;-51
2022/11/25 00:50:22;;;;;;;11.07;8.07;;;;;20.80;99985.00;;;;2087318;28;20213;-51
2022/11/25 00:51:22;;;;;;;8.70;7.13;;;;;20.80;99987.00;;;;2087827;28;20213;-50
2022/11/25 00:52:26;;;;;;;8.87;7.17;;;;;20.80;99991.00;;;;2086898;28;20572;-51
2022/11/25 00:53:26;;;;;;;9.93;7.38;;;;;20.80;99994.00;;;;2087163;28;20558;-51
2022/11/25 00:54:27;;;;;;;9.90;7.40;;;;;20.80;99985.00;;;;2087388;28;20259;-51
2022/11/25 00:56:11;;;;;;;9.37;7.27;;;;;20.80;99995.00;;;;2085664;28;20470;-51
2022/11/25 00:56:47;;;;;;;8.65;7.13;;;;;20.80;99989.00;;;;2084655;28;20703;-51
2022/11/25 00:57:48;;;;;;;11.13;7.60;;;;;20.80;99997.00;;;;2087659;28;20205;-51
2022/11/25 00:58:48;;;;;;;8.10;6.80;;;;;20.80;99976.00;;;;2087466;28;20614;-52
2022/11/25 00:59:48;;;;;;;10.33;6.80;;;;;20.70;99985.00;;;;2087581;28;20213;-50
2022/11/25 01:00:49;;;;;;;9.27;6.63;;;;;20.80;99985.00;;;;2087395;28;20741;-51
2022/11/25 01:01:49;;;;;;;10.40;7.33;;;;;20.80;99981.00;;;;2086781;28;20244;-51
2022/11/25 01:02:49;;;;;;;10.03;6.63;;;;;20.80;99982.00;;;;2087682;28;20209;-51
2022/11/25 01:03:50;;;;;;;7.77;6.20;;;;;20.80;99987.00;;;;2087414;28;20220;-52
2022/11/25 01:04:50;;;;;;;9.60;6.30;;;;;20.70;99996.00;;;;2088044;28;20224;-51
2022/11/25 01:05:51;;;;;;;10.23;6.40;;;;;20.70;99989.00;;;;2087741;28;20209;-49
2022/11/25 01:06:52;;;;;;;8.50;6.33;;;;;20.70;99979.00;;;;2087290;28;20209;-51
2022/11/25 01:07:53;;;;;;;10.35;6.32;;;;;20.70;99983.00;;;;2087458;28;20224;-51
2022/11/25 01:08:53;;;;;;;9.67;6.83;;;;;20.70;99985.00;;;;2087549;28;20240;-52
2022/11/25 01:09:54;;;;;;;9.70;5.80;;;;;20.70;99990.00;;;;2081700;28;20201;-52
2022/11/25 01:11:01;;;;;;;9.70;5.83;;;;;20.70;99985.00;;;;2079576;28;20201;-51
2022/11/25 01:12:02;;;;;;;7.05;5.57;;;;;20.70;99993.00;;;;2082532;28;20247;-51
2022/11/25 01:13:02;;;;;;;7.87;6.17;;;;;20.70;99991.00;;;;2078582;28;20217;-51
2022/11/25 01:14:02;;;;;;;8.33;6.07;;;;;20.60;99994.00;;;;2086716;28;25479;-51
2022/11/25 01:15:03;;;;;;;7.07;5.10;;;;;20.70;99983.00;;;;2087504;28;20307;-51
2022/11/25 01:16:04;;;;;;;7.90;5.80;;;;;20.70;99987.00;;;;2087470;28;20228;-51
2022/11/25 01:17:04;;;;;;;8.10;6.00;;;;;20.70;99982.00;;;;2087521;28;20227;-51
2022/11/25 01:18:05;;;;;;;8.07;5.97;;;;;20.70;99990.00;;;;2084495;28;20217;-51
2022/11/25 01:19:05;;;;;;;7.63;5.87;;;;;20.70;99988.00;;;;2079342;28;20226;-49
2022/11/25 01:20:06;;;;;;;7.00;5.20;;;;;20.70;99993.00;;;;2079305;28;20227;-51
2022/11/25 01:21:11;;;;;;;7.60;5.27;;;;;20.70;99998.00;;;;2079325;28;20748;-52
2022/11/25 01:22:11;;;;;;;7.38;4.80;;;;;20.70;99990.00;;;;2078299;28;20999;-50
2022/11/25 01:23:12;;;;;;;7.67;5.83;;;;;20.70;99984.00;;;;2079168;28;20249;-51
2022/11/25 01:24:13;;;;;;;8.70;5.43;;;;;20.70;99990.00;;;;2079176;28;20221;-51
2022/11/25 01:25:13;;;;;;;9.57;5.43;;;;;20.70;99988.00;;;;2077210;28;20233;-50
2022/11/25 01:26:16;;;;;;;8.00;5.23;;;;;20.70;99999.00;;;;2079389;28;20297;-51
2022/11/25 01:27:16;;;;;;;8.48;5.28;;;;;20.70;99989.00;;;;2078663;28;20217;-52
2022/11/25 01:28:17;;;;;;;6.00;4.93;;;;;20.70;99989.00;;;;2079011;28;20254;-52
2022/11/25 01:29:17;;;;;;;7.10;5.07;;;;;20.70;99983.00;;;;2078976;28;20225;-51
2022/11/25 01:30:17;;;;;;;7.33;4.37;;;;;20.70;99987.00;;;;2079411;28;20232;-52
2022/11/25 01:31:19;;;;;;;8.47;5.27;;;;;20.70;99981.00;;;;2079211;28;20213;-50
2022/11/25 01:32:19;;;;;;;8.85;4.88;;;;;20.70;99981.00;;;;2078198;28;20222;-51
2022/11/25 01:33:19;;;;;;;7.67;4.30;;;;;20.70;99985.00;;;;2079042;28;20214;-51
2022/11/25 01:34:24;;;;;;;7.40;4.80;;;;;20.60;99968.00;;;;2079153;28;20217;-52
2022/11/25 01:35:24;;;;;;;8.18;5.63;;;;;20.60;99973.00;;;;2083879;28;20208;-51
2022/11/25 01:36:25;;;;;;;9.07;4.53;;;;;20.60;99973.00;;;;2087291;28;20700;-51
2022/11/25 01:37:25;;;;;;;7.80;4.30;;;;;20.60;99978.00;;;;2087313;28;20205;-51
2022/11/25 01:38:26;;;;;;;6.30;4.73;;;;;20.70;99981.00;;;;2086884;28;20244;-50
2022/11/25 01:39:26;;;;;;;7.13;4.70;;;;;20.70;99974.00;;;;2087376;28;20219;-50
2022/11/25 01:40:26;;;;;;;6.83;4.47;;;;;20.70;99981.00;;;;2087581;28;20236;-49
2022/11/25 01:41:28;;;;;;;7.10;5.13;;;;;20.70;99973.00;;;;2087082;28;20205;-51
2022/11/25 01:42:29;;;;;;;7.28;4.47;;;;;20.70;99987.00;;;;2086368;28;20212;-50
2022/11/25 01:43:30;;;;;;;7.18;4.57;;;;;20.60;99982.00;;;;2077189;28;20213;-51
2022/11/25 01:44:31;;;;;;;7.23;4.60;;;;;20.60;99978.00;;;;2086619;28;20213;-51
2022/11/25 01:45:33;;;;;;;7.75;4.57;;;;;20.70;99979.00;;;;2086685;28;20704;-51
2022/11/25 01:47:11;;;;;;;8.10;4.68;;;;;20.60;99981.00;;;;2086555;28;20212;-51
2022/11/25 01:48:16;;;;;;;6.35;4.07;;;;;20.60;99971.00;;;;2075436;28;20229;-49
2022/11/25 01:49:23;;;;;;;7.10;4.95;;;;;20.60;99978.00;;;;2078333;28;20241;-51
2022/11/25 01:50:24;;;;;;;7.82;4.63;;;;;20.60;99966.00;;;;2078369;28;20292;-52
2022/11/25 01:51:47;;;;;;;5.27;3.63;;;;;20.60;99974.00;;;;2076473;28;20228;-51
2022/11/25 01:52:49;;;;;;;6.05;3.95;;;;;20.60;99973.00;;;;2079901;28;20242;-51
2022/11/25 01:53:49;;;;;;;5.00;4.07;;;;;20.60;99974.00;;;;2085943;28;20802;-52
2022/11/25 01:54:56;;;;;;;5.50;3.43;;;;;20.60;99978.00;;;;2086147;28;20212;-53
2022/11/25 01:55:59;;;;;;;5.88;4.00;;;;;20.60;99974.00;;;;2070802;28;20215;-51
2022/11/25 01:57:05;;;;;;;6.80;4.25;;;;;20.60;99973.00;;;;2078464;28;20698;-50
2022/11/25 01:58:09;;;;;;;7.75;4.13;;;;;20.60;99983.00;;;;2078420;28;20217;-51
2022/11/25 01:59:09;;;;;;;5.45;3.95;;;;;20.60;99979.00;;;;2078098;28;20209;-51
2022/11/25 02:00:09;;;;;;;5.07;3.20;;;;;20.60;99972.00;;;;2078077;28;20220;-50
2022/11/25 02:01:10;;;;;;;4.97;3.00;;;;;20.60;99972.00;;;;2078247;28;20226;-51
2022/11/25 02:02:10;;;;;;;5.20;3.73;;;;;20.60;99966.00;;;;2069410;28;20218;-52
2022/11/25 02:03:10;;;;;;;4.90;3.20;;;;;20.60;99971.00;;;;2070363;28;20225;-52
2022/11/25 02:04:11;;;;;;;6.50;4.47;;;;;20.60;99964.00;;;;2070042;28;20218;-49
2022/11/25 02:05:12;;;;;;;6.77;3.67;;;;;20.60;99960.00;;;;2069995;28;20218;-51
2022/11/25 02:06:31;;;;;;;4.38;3.10;;;;;20.60;99968.00;;;;2070276;28;20667;-51
2022/11/25 02:07:38;;;;;;;7.07;3.58;;;;;20.60;99967.00;;;;2077772;28;20244;-51
2022/11/25 02:08:39;;;;;;;5.75;3.55;;;;;20.60;99966.00;;;;2078736;28;20252;-52
2022/11/25 02:09:40;;;;;;;5.50;3.10;;;;;20.60;99964.00;;;;2079062;28;20216;-51
2022/11/25 02:10:40;;;;;;;5.40;3.58;;;;;20.60;99959.00;;;;2077970;28;20690;-50
2022/11/25 02:11:41;;;;;;;5.30;3.37;;;;;20.50;99962.00;;;;2077666;28;20264;-51
2022/11/25 02:12:43;;;;;;;5.50;3.27;;;;;20.60;99964.00;;;;2077334;28;20330;-51
2022/11/25 02:13:43;;;;;;;4.85;3.20;;;;;20.60;99963.00;;;;2069386;28;20464;-49
2022/11/25 02:14:44;;;;;;;4.37;3.03;;;;;20.60;99956.00;;;;2053222;28;20627;-49
2022/11/25 02:15:44;;;;;;;6.73;4.00;;;;;20.60;99962.00;;;;2060938;28;20332;-47
2022/11/25 02:16:44;;;;;;;8.07;3.10;;;;;20.60;99963.00;;;;2077444;28;20202;-48
2022/11/25 02:17:45;;;;;;;4.23;3.13;;;;;20.50;99957.00;;;;2078320;28;20233;-49
2022/11/25 02:18:45;;;;;;;6.67;3.00;;;;;20.50;99960.00;;;;2077675;28;20237;-49
2022/11/25 02:19:58;;;;;;;4.50;2.87;;;;;20.60;99955.00;;;;2077352;28;20917;-49
2022/11/25 02:20:58;;;;;;;4.22;2.80;;;;;20.50;99952.00;;;;2082359;28;20209;-49
2022/11/25 02:21:59;;;;;;;5.57;3.00;;;;;20.60;99951.00;;;;2085518;28;20685;-49
2022/11/25 02:23:15;;;;;;;5.03;3.28;;;;;20.50;99955.00;;;;2085845;28;20209;-48
2022/11/25 02:24:21;;;;;;;4.68;3.05;;;;;20.60;99945.00;;;;2085853;28;20704;-49
2022/11/25 02:25:27;;;;;;;4.60;3.22;;;;;20.60;99942.00;;;;2085508;28;20300;-49
2022/11/25 02:26:27;;;;;;;5.20;2.80;;;;;20.50;99957.00;;;;2074762;28;20197;-48
2022/11/25 02:27:28;;;;;;;3.67;2.73;;;;;20.50;99959.00;;;;2085924;28;20681;-49
2022/11/25 02:28:29;;;;;;;5.33;3.40;;;;;20.60;99956.00;;;;2086085;28;20705;-49
2022/11/25 02:29:29;;;;;;;4.30;2.80;;;;;20.50;99945.00;;;;2086146;28;20311;-48
2022/11/25 02:30:30;;;;;;;5.00;3.13;;;;;20.50;99953.00;;;;2086049;28;20213;-48
2022/11/25 02:31:30;;;;;;;6.37;3.03;;;;;20.60;99952.00;;;;2085961;28;20216;-48
2022/11/25 02:32:31;;;;;;;6.90;3.20;;;;;20.60;99912.00;;;;2081351;28;20221;-49
2022/11/25 02:33:31;;;;;;;4.50;3.03;;;;;20.50;99947.00;;;;2077984;28;20616;-47
2022/11/25 02:34:31;;;;;;;4.93;3.20;;;;;20.50;99940.00;;;;2078176;28;20604;-48
2022/11/25 02:35:35;;;;;;;3.60;2.60;;;;;20.50;99940.00;;;;2078943;28;20209;-48
2022/11/25 02:36:36;;;;;;;5.00;3.03;;;;;20.50;99942.00;;;;2078907;28;20268;-48
2022/11/25 02:37:36;;;;;;;5.27;2.83;;;;;20.50;99943.00;;;;2078160;28;20694;-47
2022/11/25 02:38:50;;;;;;;6.53;3.03;;;;;20.50;99946.00;;;;2083847;28;20247;-49
2022/11/25 02:39:50;;;;;;;6.50;2.72;;;;;20.50;99943.00;;;;2086535;28;20391;-49
2022/11/25 02:40:56;;;;;;;5.23;2.83;;;;;20.50;99938.00;;;;2078099;28;20728;-48
2022/11/25 02:41:57;;;;;;;5.13;3.05;;;;;20.50;99934.00;;;;2076415;28;20717;-51
2022/11/25 02:42:58;;;;;;;5.23;2.80;;;;;20.50;99938.00;;;;2069918;28;20268;-50
2022/11/25 02:43:59;;;;;;;4.65;3.22;;;;;20.50;99936.00;;;;2078200;28;20217;-50
2022/11/25 02:44:59;;;;;;;5.73;2.77;;;;;20.50;99934.00;;;;2086858;28;20205;-49
2022/11/25 02:46:04;;;;;;;5.93;2.80;;;;;20.50;99938.00;;;;2086973;28;20213;-49
2022/11/25 02:47:05;;;;;;;4.28;2.58;;;;;20.50;99939.00;;;;2087136;28;20209;-48
2022/11/25 02:48:05;;;;;;;5.90;3.33;;;;;20.50;99935.00;;;;2086911;28;20682;-49
2022/11/25 02:49:06;;;;;;;3.73;2.53;;;;;20.50;99934.00;;;;2086423;28;20352;-49
2022/11/25 02:50:06;;;;;;;4.40;2.63;;;;;20.50;99938.00;;;;2087040;28;20451;-47
2022/11/25 02:51:08;;;;;;;3.70;2.60;;;;;20.50;99939.00;;;;2085370;28;20307;-48
2022/11/25 02:52:09;;;;;;;4.97;2.63;;;;;20.50;99940.00;;;;2077360;28;20734;-49
2022/11/25 02:53:09;;;;;;;4.30;2.27;;;;;20.50;99911.00;;;;2078151;28;20300;-49
2022/11/25 02:54:13;;;;;;;4.93;2.60;;;;;20.50;99947.00;;;;2078503;28;20213;-48
2022/11/25 02:55:13;;;;;;;4.15;2.40;;;;;20.50;99944.00;;;;2079045;28;20213;-49
2022/11/25 02:56:14;;;;;;;4.30;2.70;;;;;20.50;99943.00;;;;2081143;28;20241;-48
2022/11/25 02:57:14;;;;;;;5.20;2.50;;;;;20.50;99940.00;;;;2086516;28;20197;-49
2022/11/25 02:58:15;;;;;;;4.10;2.37;;;;;20.50;99935.00;;;;2087084;28;20708;-49
2022/11/25 02:59:15;;;;;;;4.47;2.70;;;;;20.50;99942.00;;;;2088290;28;20747;-49
2022/11/25 03:00:16;;;;;;;3.50;2.43;;;;;20.50;99944.00;;;;2088628;28;20569;-49
2022/11/25 03:01:17;;;;;;;5.88;2.50;;;;;20.40;99943.00;;;;2087877;28;20299;-49
2022/11/25 03:02:17;;;;;;;4.03;2.17;;;;;20.40;99938.00;;;;2078274;28;20201;-48
2022/11/25 03:03:17;;;;;;;4.70;2.40;;;;;20.40;99942.00;;;;2087769;28;20429;-49
2022/11/25 03:04:18;;;;;;;5.80;2.87;;;;;20.40;99948.00;;;;2082054;28;20217;-49
2022/11/25 03:05:18;;;;;;;4.47;2.37;;;;;20.40;99952.00;;;;2080400;28;20252;-48
2022/11/25 03:06:18;;;;;;;4.20;2.00;;;;;20.50;99948.00;;;;2080260;28;20213;-49
2022/11/25 03:07:19;;;;;;;4.13;2.30;;;;;20.50;99943.00;;;;2080511;28;20224;-49
2022/11/25 03:08:19;;;;;;;3.73;2.03;;;;;20.50;99956.00;;;;2083891;28;20280;-49
2022/11/25 03:09:19;;;;;;;5.70;3.10;;;;;20.50;99948.00;;;;2080129;28;20271;-49
2022/11/25 03:10:20;;;;;;;5.37;2.60;;;;;20.40;99956.00;;;;2080213;28;20271;-49
2022/11/25 03:12:17;;;;;;;5.17;2.37;;;;;20.40;99961.00;;;;2080289;28;20615;-49
2022/11/25 03:12:41;;;;;;;5.03;2.13;;;;;20.40;99952.00;;;;2084248;28;20963;-49
2022/11/25 03:13:41;;;;;;;4.00;2.27;;;;;20.40;99956.00;;;;2088269;28;20285;-49
2022/11/25 03:14:41;;;;;;;3.90;2.40;;;;;20.40;99947.00;;;;2087893;28;20213;-48
2022/11/25 03:15:42;;;;;;;3.83;2.00;;;;;20.40;99956.00;;;;2088218;28;20221;-47
2022/11/25 03:16:42;;;;;;;3.10;2.00;;;;;20.50;99955.00;;;;2084867;28;20241;-49
2022/11/25 03:17:43;;;;;;;4.40;2.17;;;;;20.50;99955.00;;;;2081751;28;20217;-48
2022/11/25 03:18:43;;;;;;;4.20;2.30;;;;;20.50;99952.00;;;;2079595;28;20217;-49
2022/11/25 03:19:43;;;;;;;5.03;2.60;;;;;20.40;99954.00;;;;2079969;28;20674;-49
2022/11/25 03:20:44;;;;;;;3.30;2.10;;;;;20.40;99953.00;;;;2084060;28;20711;-49
2022/11/25 03:21:44;;;;;;;2.90;2.10;;;;;20.50;99953.00;;;;2084335;28;20213;-48
2022/11/25 03:22:44;;;;;;;4.50;2.50;;;;;20.50;99968.00;;;;2087805;28;20212;-48
2022/11/25 03:23:45;;;;;;;4.13;2.20;;;;;20.50;99960.00;;;;2087637;28;20224;-48
2022/11/25 03:24:45;;;;;;;4.77;2.50;;;;;20.40;99966.00;;;;2087777;28;20705;-48
2022/11/25 03:25:45;;;;;;;4.50;2.17;;;;;20.40;99969.00;;;;2088134;28;20645;-48
2022/11/25 03:26:46;;;;;;;3.57;1.93;;;;;20.40;99970.00;;;;2088687;28;20734;-49
2022/11/25 03:27:46;;;;;;;3.90;1.77;;;;;20.40;99978.00;;;;2088347;28;20216;-49
2022/11/25 03:28:46;;;;;;;4.40;2.17;;;;;20.40;99975.00;;;;2088284;28;20219;-46
2022/11/25 03:29:48;;;;;;;3.30;1.83;;;;;20.40;99973.00;;;;2088418;28;20258;-49
2022/11/25 03:30:48;;;;;;;3.50;2.20;;;;;20.40;99976.00;;;;2087975;28;20205;-49
2022/11/25 03:31:48;;;;;;;3.10;2.10;;;;;20.40;99980.00;;;;2087548;28;20701;-46
2022/11/25 03:32:49;;;;;;;4.07;2.23;;;;;20.40;99973.00;;;;2084452;28;20725;-49
2022/11/25 03:33:49;;;;;;;7.63;2.20;;;;;20.40;99981.00;;;;2080136;28;20706;-49
2022/11/25 03:34:49;;;;;;;4.40;2.27;;;;;20.40;99976.00;;;;2080043;28;20687;-49
2022/11/25 03:35:50;;;;;;;4.53;2.20;;;;;20.40;99976.00;;;;2080449;28;20581;-49
2022/11/25 03:36:50;;;;;;;3.73;1.90;;;;;20.40;99973.00;;;;2079716;28;20609;-49
2022/11/25 03:37:50;;;;;;;4.13;2.20;;;;;20.40;99979.00;;;;2079935;28;20574;-49
2022/11/25 03:38:51;;;;;;;3.00;1.80;;;;;20.40;99984.00;;;;2079580;28;20287;-49
2022/11/25 03:39:51;;;;;;;3.20;1.60;;;;;20.40;99982.00;;;;2080188;28;20205;-48
2022/11/25 03:40:51;;;;;;;2.90;1.80;;;;;20.40;99982.00;;;;2079953;28;20213;-48
2022/11/25 03:41:52;;;;;;;3.67;1.97;;;;;20.40;99986.00;;;;2079081;28;20225;-49
2022/11/25 03:42:52;;;;;;;5.00;2.27;;;;;20.40;99980.00;;;;2080112;28;20210;-49
2022/11/25 03:43:52;;;;;;;5.70;2.40;;;;;20.40;99986.00;;;;2080022;28;20214;-49
2022/11/25 03:44:53;;;;;;;4.07;1.90;;;;;20.40;99981.00;;;;2080074;28;20298;-48
2022/11/25 03:45:53;;;;;;;3.03;1.70;;;;;20.40;99979.00;;;;2080036;28;20216;-49
2022/11/25 03:46:53;;;;;;;2.87;1.90;;;;;20.40;99984.00;;;;2079860;28;20209;-47
2022/11/25 03:47:54;;;;;;;4.87;2.30;;;;;20.40;99981.00;;;;2079586;28;20280;-49
2022/11/25 03:48:54;;;;;;;5.90;1.70;;;;;20.40;99979.00;;;;2079968;28;21101;-48
2022/11/25 03:49:54;;;;;;;4.40;2.00;;;;;20.40;99982.00;;;;2079117;28;20210;-49
2022/11/25 03:50:55;;;;;;;3.83;1.80;;;;;20.40;99984.00;;;;2079448;28;20299;-49
2022/11/25 03:51:55;;;;;;;5.57;2.00;;;;;20.40;99994.00;;;;2078933;28;20224;-49
2022/11/25 03:52:55;;;;;;;4.20;1.67;;;;;20.40;99987.00;;;;2078651;28;20209;-49
2022/11/25 03:53:56;;;;;;;3.20;1.70;;;;;20.40;99988.00;;;;2080010;28;20212;-49
2022/11/25 03:54:56;;;;;;;4.83;2.27;;;;;20.40;99985.00;;;;2080407;28;20205;-48
2022/11/25 03:55:56;;;;;;;3.83;2.10;;;;;20.40;99989.00;;;;2082953;28;20254;-49
2022/11/25 03:56:56;;;;;;;4.30;2.17;;;;;20.40;99980.00;;;;2085840;28;20228;-49
2022/11/25 03:57:57;;;;;;;4.33;2.13;;;;;20.40;99986.00;;;;2087689;28;20270;-49
2022/11/25 03:58:57;;;;;;;4.80;2.10;;;;;20.40;99977.00;;;;2087357;28;20224;-49
2022/11/25 03:59:57;;;;;;;4.40;1.67;;;;;20.40;99987.00;;;;2088141;28;20250;-49
2022/11/25 04:01:01;;;;;;;2.83;1.70;;;;;20.40;99987.00;;;;2088036;28;20212;-49
2022/11/25 04:02:01;;;;;;;3.88;2.22;;;;;20.40;99991.00;;;;2087100;28;20215;-49
2022/11/25 04:03:02;;;;;;;3.33;1.73;;;;;20.40;99994.00;;;;2087032;28;20236;-49
2022/11/25 04:04:02;;;;;;;3.00;2.03;;;;;20.40;99993.00;;;;2087180;28;20227;-49
2022/11/25 04:05:04;;;;;;;4.87;1.87;;;;;20.40;99997.00;;;;2087888;28;20730;-47
2022/11/25 04:06:04;;;;;;;4.65;1.90;;;;;20.30;99994.00;;;;2086900;28;20220;-49
2022/11/25 04:07:05;;;;;;;3.87;1.80;;;;;20.40;99990.00;;;;2088150;28;20266;-48
2022/11/25 04:08:05;;;;;;;4.07;2.00;;;;;20.40;99994.00;;;;2087777;28;20232;-48
2022/11/25 04:09:06;;;;;;;4.73;2.10;;;;;20.40;100003.00;;;;2087822;28;20742;-50
2022/11/25 04:10:07;;;;;;;3.67;2.25;;;;;20.30;100002.00;;;;2086968;28;20259;-49
2022/11/25 04:11:07;;;;;;;4.97;1.70;;;;;20.40;99991.00;;;;2080123;28;20343;-49
2022/11/25 04:13:28;;;;;;;3.70;1.70;;;;;20.30;99993.00;;;;2075997;28;20212;-49
2022/11/25 04:14:28;;;;;;;3.70;1.50;;;;;20.30;100003.00;;;;2087277;28;20232;-49
2022/11/25 04:15:29;;;;;;;4.37;1.87;;;;;20.40;100007.00;;;;2087706;28;20617;-49
2022/11/25 04:16:29;;;;;;;4.37;1.83;;;;;20.30;100002.00;;;;2087681;28;20282;-48
2022/11/25 04:17:29;;;;;;;3.17;1.50;;;;;20.30;99998.00;;;;2087744;28;20220;-49
2022/11/25 04:18:30;;;;;;;3.10;1.70;;;;;20.30;100003.00;;;;2087705;28;20270;-47
2022/11/25 04:19:30;;;;;;;3.17;1.50;;;;;20.30;99998.00;;;;2086333;28;20263;-47
2022/11/25 04:20:30;;;;;;;3.50;1.70;;;;;20.30;100012.00;;;;2087008;28;20216;-49
2022/11/25 04:21:31;;;;;;;3.00;1.70;;;;;20.30;100016.00;;;;2086827;28;20220;-49
2022/11/25 04:22:31;;;;;;;3.57;1.70;;;;;20.30;100017.00;;;;2081653;28;20245;-49
2022/11/25 04:23:31;;;;;;;3.50;1.43;;;;;20.30;99983.00;;;;2079351;28;20217;-50
2022/11/25 04:24:32;;;;;;;3.10;1.80;;;;;20.30;100016.00;;;;2078953;28;20774;-47
2022/11/25 04:25:32;;;;;;;4.70;2.10;;;;;20.30;100009.00;;;;2079117;28;20625;-49
2022/11/25 04:26:33;;;;;;;4.80;1.77;;;;;20.30;100019.00;;;;2080637;28;20213;-49
2022/11/25 04:27:33;;;;;;;3.80;1.93;;;;;20.30;100016.00;;;;2087335;28;20454;-49
2022/11/25 04:28:33;;;;;;;2.83;1.60;;;;;20.30;100020.00;;;;2086363;28;20204;-49
2022/11/25 04:29:34;;;;;;;4.03;1.70;;;;;20.30;100021.00;;;;2086581;28;20232;-48
2022/11/25 04:30:34;;;;;;;2.20;1.50;;;;;20.30;100024.00;;;;2087713;28;20213;-48
2022/11/25 04:31:36;;;;;;;3.60;1.60;;;;;20.30;100022.00;;;;2086627;28;20220;-49
2022/11/25 04:32:37;;;;;;;3.60;1.65;;;;;20.30;100026.00;;;;2086070;28;20753;-49
2022/11/25 04:33:37;;;;;;;4.00;1.57;;;;;20.30;100024.00;;;;2087140;28;20217;-49
2022/11/25 04:34:38;;;;;;;3.60;1.70;;;;;20.30;100027.00;;;;2086996;28;20224;-49
2022/11/25 04:35:38;;;;;;;3.60;1.47;;;;;20.30;100026.00;;;;2086333;28;20711;-47
2022/11/25 04:36:38;;;;;;;3.77;1.90;;;;;20.30;100034.00;;;;2078819;28;20712;-47
2022/11/25 04:37:39;;;;;;;3.80;1.50;;;;;20.30;100028.00;;;;2087064;28;20747;-49
2022/11/25 04:38:39;;;;;;;3.33;1.50;;;;;20.30;100016.00;;;;2087225;28;20555;-48
2022/11/25 04:39:39;;;;;;;2.97;1.50;;;;;20.30;100025.00;;;;2087558;28;20746;-49
2022/11/25 04:40:40;;;;;;;3.90;1.53;;;;;20.30;100027.00;;;;2087337;28;20695;-49
2022/11/25 04:41:40;;;;;;;2.63;1.60;;;;;20.30;100034.00;;;;2087759;28;20627;-49
2022/11/25 04:42:40;;;;;;;3.20;1.70;;;;;20.30;100024.00;;;;2086862;28;20751;-49
2022/11/25 04:43:41;;;;;;;4.70;1.87;;;;;20.30;100025.00;;;;2087646;28;20715;-48
2022/11/25 04:44:41;;;;;;;4.00;1.70;;;;;20.30;100021.00;;;;2087820;28;20274;-48
2022/11/25 04:45:41;;;;;;;3.40;1.80;;;;;20.30;100021.00;;;;2087269;28;20217;-48
2022/11/25 04:46:42;;;;;;;6.43;1.70;;;;;20.30;100019.00;;;;2087648;28;20646;-49
2022/11/25 04:47:42;;;;;;;3.40;1.40;;;;;20.30;100027.00;;;;2086679;28;20223;-49
2022/11/25 04:48:43;;;;;;;4.90;1.80;;;;;20.30;100031.00;;;;2086718;28;20595;-49
2022/11/25 04:49:43;;;;;;;3.07;1.60;;;;;20.30;100021.00;;;;2087664;28;20263;-47
2022/11/25 04:50:43;;;;;;;3.40;1.60;;;;;20.30;100029.00;;;;2087681;28;20216;-49
2022/11/25 04:51:44;;;;;;;3.10;1.50;;;;;20.30;100029.00;;;;2087106;28;20220;-48
2022/11/25 04:52:44;;;;;;;2.97;1.60;;;;;20.30;100036.00;;;;2086784;28;20261;-48
2022/11/25 04:53:44;;;;;;;4.80;1.90;;;;;20.30;100034.00;;;;2087367;28;20232;-49
2022/11/25 04:54:45;;;;;;;3.83;1.67;;;;;20.30;100030.00;;;;2087401;28;20228;-49
2022/11/25 04:55:45;;;;;;;2.90;1.50;;;;;20.30;100028.00;;;;2087298;28;20209;-48
2022/11/25 04:56:46;;;;;;;3.50;1.47;;;;;20.30;100032.00;;;;2086468;28;20200;-51
2022/11/25 04:57:46;;;;;;;2.63;1.80;;;;;20.30;100032.00;;;;2087606;28;20582;-51
2022/11/25 05:00:06;;;;;;;3.85;1.35;;;;;20.30;100036.00;;;;2087587;28;20212;-49
2022/11/25 05:01:06;;;;;;;3.17;1.60;;;;;20.20;100040.00;;;;2087345;28;20280;-50
2022/11/25 05:02:16;;;;;;;3.07;1.60;;;;;20.30;100042.00;;;;2086510;28;20225;-49
2022/11/25 05:03:16;;;;;;;4.38;1.73;;;;;20.30;100047.00;;;;2087310;28;20681;-49
2022/11/25 05:04:17;;;;;;;2.80;1.60;;;;;20.30;100047.00;;;;2086985;28;22288;-50
2022/11/25 05:05:17;;;;;;;2.53;1.40;;;;;20.30;100042.00;;;;2080924;28;21683;-53
2022/11/25 05:06:18;;;;;;;4.60;1.97;;;;;20.30;100049.00;;;;2079267;28;20214;-50
2022/11/25 05:07:19;;;;;;;3.13;1.50;;;;;20.20;100046.00;;;;2078862;28;20217;-49
2022/11/25 05:08:19;;;;;;;2.30;1.25;;;;;20.30;100055.00;;;;2079066;28;20448;-49
2022/11/25 05:09:20;;;;;;;3.53;1.57;;;;;20.20;100046.00;;;;2079248;28;20221;-50
2022/11/25 05:10:20;;;;;;;3.07;1.67;;;;;20.20;100057.00;;;;2079366;28;20228;-48
2022/11/25 05:11:20;;;;;;;2.87;1.70;;;;;20.30;100050.00;;;;2079237;28;20313;-48
2022/11/25 05:12:24;;;;;;;3.13;1.93;;;;;20.20;100056.00;;;;2078313;28;20728;-47